Time;durP1;ratioP1;P1;durP2;ratioP2;P2;SDS_P1;SDS_P2;PMS_P1;PMS_P2;Temp;Humidity;BMP_temperature;BMP_pressure;BME280_temperature;BME280_humidity;BME280_pressure;Samples;Min_cycle;Max_cycle;Signal;HPM_P1;HPM_P2
2024/02/26 00:00:30;;;;;;;13.50;10.20;;;4.80;99.90;;;;;;5073504;28;20692;-66
2024/02/26 00:02:56;;;;;;;12.23;10.20;;;4.70;99.90;;;;;;5087022;22;20598;-57
2024/02/26 00:05:22;;;;;;;11.53;8.60;;;4.60;99.90;;;;;;5057072;28;20178;-57
2024/02/26 00:07:48;;;;;;;16.30;10.50;;;4.60;99.90;;;;;;5063395;28;20180;-58
2024/02/26 00:10:14;;;;;;;13.73;10.47;;;4.50;99.90;;;;;;5067753;28;20304;-52
2024/02/26 00:12:40;;;;;;;16.50;10.07;;;4.40;99.90;;;;;;5066291;28;20875;-56
2024/02/26 00:15:10;;;;;;;16.03;10.07;;;4.40;99.90;;;;;;5065456;28;20425;-56
2024/02/26 00:17:35;;;;;;;12.53;11.23;;;4.40;99.90;;;;;;5073875;28;20175;-55
2024/02/26 00:20:04;;;;;;;11.43;10.07;;;4.40;99.90;;;;;;5066501;28;20461;-53
2024/02/26 00:22:30;;;;;;;11.50;10.00;;;4.30;99.90;;;;;;5056477;28;20629;-57
2024/02/26 00:24:56;;;;;;;13.60;9.20;;;4.30;99.90;;;;;;5073646;28;20417;-56
2024/02/26 00:27:21;;;;;;;17.37;9.90;;;4.30;99.90;;;;;;5073360;28;20978;-53
2024/02/26 00:29:47;;;;;;;16.90;10.60;;;4.40;99.90;;;;;;5073700;28;20644;-55
2024/02/26 00:32:12;;;;;;;15.10;10.33;;;4.40;99.90;;;;;;5065022;28;20257;-58
2024/02/26 00:34:38;;;;;;;15.47;9.60;;;4.30;99.90;;;;;;5073341;28;20178;-55
2024/02/26 00:37:03;;;;;;;15.30;9.77;;;4.30;99.90;;;;;;5073408;28;20648;-55
2024/02/26 00:39:29;;;;;;;11.20;9.97;;;4.20;99.90;;;;;;5073031;28;20205;-57
2024/02/26 00:41:55;;;;;;;12.67;9.97;;;4.20;99.90;;;;;;5073242;28;20199;-52
2024/02/26 00:44:20;;;;;;;16.73;9.50;;;4.20;99.90;;;;;;5064754;28;20205;-57
2024/02/26 00:46:46;;;;;;;10.67;8.83;;;4.20;99.90;;;;;;5068431;28;20179;-56
2024/02/26 00:49:11;;;;;;;13.70;10.93;;;4.10;99.90;;;;;;5069860;28;20202;-56
2024/02/26 00:51:37;;;;;;;15.13;10.40;;;4.10;99.90;;;;;;5056753;28;20213;-53
2024/02/26 00:54:03;;;;;;;12.87;10.53;;;4.10;99.90;;;;;;5072987;28;20174;-55
2024/02/26 00:56:28;;;;;;;11.63;10.00;;;4.20;99.90;;;;;;5072800;28;20178;-57
2024/02/26 00:58:54;;;;;;;12.07;10.30;;;4.20;99.90;;;;;;5064480;28;20193;-57
2024/02/26 01:01:19;;;;;;;11.00;9.30;;;4.20;99.90;;;;;;5072026;28;20668;-55
2024/02/26 01:03:45;;;;;;;13.70;8.90;;;4.10;99.90;;;;;;5064658;28;20178;-53
2024/02/26 01:06:11;;;;;;;12.07;9.40;;;4.10;99.90;;;;;;5065605;28;20185;-56
2024/02/26 01:08:37;;;;;;;12.60;10.80;;;4.10;99.90;;;;;;5073805;28;20174;-57
2024/02/26 01:11:03;;;;;;;12.70;9.83;;;4.10;99.90;;;;;;5065058;28;20228;-57
2024/02/26 01:13:29;;;;;;;10.90;9.83;;;4.00;99.90;;;;;;5064729;28;20844;-56
2024/02/26 01:15:55;;;;;;;11.03;9.83;;;4.00;99.90;;;;;;5072560;28;20798;-54
2024/02/26 01:18:20;;;;;;;14.77;10.93;;;4.00;99.90;;;;;;5055991;28;20417;-55
2024/02/26 01:20:46;;;;;;;12.20;9.83;;;3.90;99.90;;;;;;5073041;28;20227;-57
2024/02/26 01:23:12;;;;;;;12.63;9.60;;;4.00;99.90;;;;;;5056126;28;20189;-57
2024/02/26 01:25:39;;;;;;;9.97;8.80;;;3.90;99.90;;;;;;5064384;28;20170;-54
2024/02/26 01:28:05;;;;;;;10.57;8.70;;;3.90;99.90;;;;;;5055986;28;20494;-54
2024/02/26 01:30:31;;;;;;;13.53;9.30;;;3.90;99.90;;;;;;5061730;28;20448;-57
2024/02/26 01:32:57;;;;;;;12.80;9.27;;;3.80;99.90;;;;;;5040468;28;20855;-58
2024/02/26 01:35:22;;;;;;;9.50;8.50;;;3.80;99.90;;;;;;5071142;28;20469;-56
2024/02/26 01:37:48;;;;;;;12.20;10.77;;;3.80;99.90;;;;;;5065567;28;20273;-55
2024/02/26 01:40:17;;;;;;;11.67;9.97;;;3.70;99.90;;;;;;5055807;28;20202;-58
2024/02/26 01:42:43;;;;;;;13.10;10.87;;;3.70;99.90;;;;;;5057163;28;20715;-57
2024/02/26 01:45:15;;;;;;;11.90;9.73;;;3.70;99.90;;;;;;5072803;28;20499;-56
2024/02/26 01:47:42;;;;;;;10.00;8.83;;;3.70;99.90;;;;;;5072347;28;20412;-59
2024/02/26 01:50:08;;;;;;;13.30;9.67;;;3.80;99.90;;;;;;5072088;28;20531;-58
2024/02/26 01:52:34;;;;;;;11.30;9.97;;;3.80;99.90;;;;;;5047176;28;20449;-58
2024/02/26 01:55:01;;;;;;;12.47;9.33;;;3.70;99.90;;;;;;5071958;28;20819;-58
2024/02/26 01:57:28;;;;;;;12.80;9.83;;;3.70;99.90;;;;;;5071905;28;20428;-54
2024/02/26 01:59:54;;;;;;;10.93;9.70;;;3.60;99.90;;;;;;5066614;28;20484;-56
2024/02/26 02:02:20;;;;;;;12.90;10.00;;;3.60;99.90;;;;;;5067644;28;20833;-55
2024/02/26 02:04:45;;;;;;;10.50;9.03;;;3.60;99.90;;;;;;5052516;28;20430;-56
2024/02/26 02:07:12;;;;;;;11.17;9.47;;;3.60;99.90;;;;;;5067908;28;20504;-57
2024/02/26 02:09:38;;;;;;;8.87;8.03;;;3.60;99.90;;;;;;5063429;28;20182;-55
2024/02/26 02:12:04;;;;;;;10.63;8.67;;;3.60;99.90;;;;;;5070769;28;20501;-55
2024/02/26 02:14:29;;;;;;;9.80;7.90;;;3.50;99.90;;;;;;5054869;28;20200;-55
2024/02/26 02:16:55;;;;;;;8.63;6.97;;;3.50;99.90;;;;;;5071735;28;20820;-57
2024/02/26 02:19:20;;;;;;;9.37;8.27;;;3.50;99.90;;;;;;5071341;28;20632;-57
2024/02/26 02:21:46;;;;;;;8.60;6.80;;;3.60;99.90;;;;;;5067374;28;20276;-57
2024/02/26 02:24:11;;;;;;;8.63;7.83;;;3.50;99.90;;;;;;5059718;28;20187;-58
2024/02/26 02:26:37;;;;;;;13.30;7.57;;;3.60;99.90;;;;;;5070910;28;20186;-57
2024/02/26 02:29:03;;;;;;;8.10;7.30;;;3.50;99.90;;;;;;5061041;28;20210;-57
2024/02/26 02:31:29;;;;;;;8.73;7.30;;;3.50;99.90;;;;;;5051266;28;20445;-56
2024/02/26 02:33:54;;;;;;;8.03;7.17;;;3.40;99.90;;;;;;5051361;28;20182;-54
2024/02/26 02:36:20;;;;;;;9.67;6.47;;;3.40;99.90;;;;;;5051324;28;20625;-57
2024/02/26 02:38:50;;;;;;;11.13;7.80;;;3.50;99.90;;;;;;5051588;28;20587;-56
2024/02/26 02:41:16;;;;;;;7.03;5.73;;;3.50;99.90;;;;;;5051533;28;20187;-58
2024/02/26 02:43:41;;;;;;;7.40;6.60;;;3.50;99.90;;;;;;5051340;28;20434;-56
2024/02/26 02:46:07;;;;;;;7.87;6.97;;;3.50;99.90;;;;;;5051522;28;20194;-58
2024/02/26 02:48:32;;;;;;;6.70;6.20;;;3.50;99.90;;;;;;5051089;28;20175;-57
2024/02/26 02:50:58;;;;;;;8.10;6.17;;;3.50;99.90;;;;;;5042927;28;20260;-57
2024/02/26 02:53:24;;;;;;;9.33;6.50;;;3.60;99.90;;;;;;5050924;28;20179;-55
2024/02/26 02:55:49;;;;;;;7.20;6.50;;;3.60;99.90;;;;;;5051279;28;20421;-56
2024/02/26 02:58:15;;;;;;;8.27;5.90;;;3.60;99.90;;;;;;5043396;28;20266;-56
2024/02/26 03:00:41;;;;;;;6.23;5.30;;;3.60;99.90;;;;;;5042364;28;20206;-59
2024/02/26 03:03:06;;;;;;;7.23;6.53;;;3.60;99.90;;;;;;5050946;28;20264;-58
2024/02/26 03:05:32;;;;;;;7.63;6.83;;;3.60;99.90;;;;;;5049182;28;20187;-54
2024/02/26 03:07:58;;;;;;;6.77;6.17;;;3.50;99.90;;;;;;5044631;28;20253;-57
2024/02/26 03:10:23;;;;;;;10.03;7.90;;;3.40;99.90;;;;;;5050615;28;20220;-55
2024/02/26 03:12:49;;;;;;;7.17;6.47;;;3.50;99.90;;;;;;5043446;28;21008;-56
2024/02/26 03:15:15;;;;;;;11.20;7.20;;;3.50;99.90;;;;;;5050974;28;20187;-57
2024/02/26 03:17:41;;;;;;;7.97;7.27;;;3.50;99.90;;;;;;5051095;28;20951;-57
2024/02/26 03:20:08;;;;;;;9.73;7.37;;;3.50;99.90;;;;;;5044380;28;20211;-58
2024/02/26 03:22:34;;;;;;;11.80;8.00;;;3.50;99.90;;;;;;5050074;28;20673;-56
2024/02/26 03:24:59;;;;;;;7.20;6.50;;;3.40;99.90;;;;;;5054821;28;20424;-57
2024/02/26 03:27:25;;;;;;;10.10;8.83;;;3.40;99.90;;;;;;5054081;28;20175;-55
2024/02/26 03:29:51;;;;;;;8.70;6.70;;;3.40;99.90;;;;;;5039298;28;20175;-54
2024/02/26 03:32:16;;;;;;;12.73;7.33;;;3.40;99.90;;;;;;5054982;28;20206;-56
2024/02/26 03:34:42;;;;;;;8.60;7.27;;;3.30;99.90;;;;;;5054707;28;20187;-56
2024/02/26 03:37:10;;;;;;;15.33;9.57;;;3.30;99.90;;;;;;5055005;28;20693;-56
2024/02/26 03:39:35;;;;;;;9.17;8.10;;;3.40;99.90;;;;;;5054489;28;20228;-57
2024/02/26 03:42:02;;;;;;;9.50;8.47;;;3.30;99.90;;;;;;5054381;28;20970;-57
2024/02/26 03:44:27;;;;;;;9.60;8.70;;;3.30;99.90;;;;;;5054535;28;20179;-55
2024/02/26 03:46:53;;;;;;;12.20;9.40;;;3.20;99.90;;;;;;5054665;28;20925;-58
2024/02/26 03:49:19;;;;;;;11.63;8.10;;;3.20;99.90;;;;;;5054371;28;20193;-57
2024/02/26 03:51:44;;;;;;;9.63;8.70;;;3.20;99.90;;;;;;5054336;28;20195;-57
2024/02/26 03:54:10;;;;;;;12.40;10.83;;;3.20;99.90;;;;;;5054268;28;20445;-54
2024/02/26 03:56:35;;;;;;;11.40;9.03;;;3.20;99.90;;;;;;5054405;28;20182;-56
2024/02/26 03:59:02;;;;;;;10.77;9.47;;;3.10;99.90;;;;;;5054170;28;20257;-56
2024/02/26 04:01:28;;;;;;;8.80;7.87;;;3.10;99.90;;;;;;5054453;28;20215;-53
2024/02/26 04:03:54;;;;;;;9.53;7.67;;;3.10;99.90;;;;;;5054338;28;20431;-59
2024/02/26 04:06:20;;;;;;;8.57;7.70;;;3.20;99.90;;;;;;5054306;28;20171;-54
2024/02/26 04:08:46;;;;;;;8.87;7.97;;;3.10;99.90;;;;;;5053910;28;20405;-58
2024/02/26 04:11:12;;;;;;;8.53;6.80;;;3.10;99.90;;;;;;5054009;28;20408;-59
2024/02/26 04:13:38;;;;;;;9.80;7.60;;;3.10;99.90;;;;;;5053851;28;20440;-58
2024/02/26 04:16:06;;;;;;;10.03;7.83;;;3.10;99.90;;;;;;5053985;28;20167;-55
2024/02/26 04:18:33;;;;;;;8.70;7.00;;;3.00;99.90;;;;;;5053721;28;20182;-58
2024/02/26 04:20:59;;;;;;;7.93;7.13;;;3.00;99.90;;;;;;5053710;28;20461;-58
2024/02/26 04:23:24;;;;;;;8.97;8.10;;;2.90;99.90;;;;;;5053510;28;20425;-57
2024/02/26 04:25:50;;;;;;;11.43;7.07;;;2.90;99.90;;;;;;5053785;28;20413;-58
2024/02/26 04:28:16;;;;;;;8.03;7.13;;;2.90;99.90;;;;;;5053824;28;20410;-53
2024/02/26 04:30:42;;;;;;;8.47;7.20;;;3.00;99.90;;;;;;5053636;28;20185;-56
2024/02/26 04:33:07;;;;;;;11.13;8.07;;;3.00;99.90;;;;;;5053523;28;20187;-57
2024/02/26 04:35:35;;;;;;;9.90;7.43;;;2.90;99.90;;;;;;5052711;28;20422;-54
2024/02/26 04:38:00;;;;;;;9.00;7.50;;;2.90;99.90;;;;;;5053630;28;20163;-57
2024/02/26 04:40:26;;;;;;;7.97;7.07;;;2.90;99.90;;;;;;5053444;28;20535;-58
2024/02/26 04:42:52;;;;;;;9.00;7.87;;;2.90;99.90;;;;;;5053437;28;20179;-57
2024/02/26 04:45:17;;;;;;;9.37;7.90;;;2.90;99.90;;;;;;5053613;28;20406;-56
2024/02/26 04:47:43;;;;;;;9.43;8.50;;;2.90;99.90;;;;;;5053266;28;20171;-55
2024/02/26 04:50:09;;;;;;;11.30;8.60;;;2.90;99.90;;;;;;5053692;28;20193;-57
2024/02/26 04:52:36;;;;;;;11.23;7.87;;;2.80;99.90;;;;;;5053551;28;20256;-54
2024/02/26 04:55:02;;;;;;;12.23;9.30;;;2.80;99.90;;;;;;5053357;28;20175;-57
2024/02/26 04:57:28;;;;;;;13.50;8.27;;;2.80;99.90;;;;;;5053273;28;20828;-53
2024/02/26 04:59:53;;;;;;;12.20;9.10;;;2.90;99.90;;;;;;5053069;28;20441;-58
2024/02/26 05:02:19;;;;;;;13.00;8.90;;;2.90;99.90;;;;;;5052904;28;20210;-54
2024/02/26 05:04:44;;;;;;;12.33;9.40;;;2.90;99.90;;;;;;5053119;28;20175;-54
2024/02/26 05:07:10;;;;;;;10.90;8.80;;;2.90;99.90;;;;;;5053006;28;20173;-58
2024/02/26 05:09:36;;;;;;;10.27;8.60;;;2.90;99.90;;;;;;5052854;28;20171;-56
2024/02/26 05:12:02;;;;;;;10.03;8.57;;;2.90;99.90;;;;;;5052995;28;20194;-55
2024/02/26 05:14:27;;;;;;;12.07;8.50;;;2.90;99.90;;;;;;5052654;28;20422;-57
2024/02/26 05:16:53;;;;;;;9.80;8.10;;;2.90;99.90;;;;;;5052782;28;20171;-55
2024/02/26 05:19:18;;;;;;;12.90;9.13;;;2.90;99.90;;;;;;5052671;28;20609;-54
2024/02/26 05:21:44;;;;;;;11.13;9.40;;;2.90;99.90;;;;;;5052544;28;20278;-55
2024/02/26 05:24:10;;;;;;;10.97;8.30;;;2.90;99.90;;;;;;5052572;28;20167;-57
2024/02/26 05:26:35;;;;;;;10.30;8.10;;;2.90;99.90;;;;;;5052547;28;20262;-58
2024/02/26 05:29:01;;;;;;;14.93;10.40;;;2.90;99.90;;;;;;5052516;28;20418;-57
2024/02/26 05:31:28;;;;;;;12.50;9.57;;;2.90;99.90;;;;;;5052344;28;20828;-58
2024/02/26 05:33:54;;;;;;;12.87;9.60;;;2.80;99.90;;;;;;5048770;28;20175;-58
2024/02/26 05:36:24;;;;;;;9.80;8.80;;;2.80;99.90;;;;;;5048424;28;20425;-56
2024/02/26 05:38:49;;;;;;;11.10;9.87;;;2.90;99.90;;;;;;5052477;28;20429;-51
2024/02/26 05:41:16;;;;;;;12.23;9.87;;;2.80;99.90;;;;;;5052274;28;20413;-56
2024/02/26 05:43:42;;;;;;;13.17;10.93;;;2.80;99.90;;;;;;5052240;28;20197;-55
2024/02/26 05:46:08;;;;;;;16.33;10.47;;;2.80;99.90;;;;;;5052109;28;20410;-60
2024/02/26 05:48:34;;;;;;;13.30;11.03;;;2.80;99.90;;;;;;5052279;28;20418;-58
2024/02/26 05:50:59;;;;;;;16.10;11.37;;;2.80;99.90;;;;;;5052243;28;20170;-57
2024/02/26 05:53:25;;;;;;;14.70;11.30;;;2.80;99.90;;;;;;5051968;28;20653;-57
2024/02/26 05:55:50;;;;;;;12.40;10.60;;;2.80;99.90;;;;;;5052363;28;20186;-57
2024/02/26 05:58:16;;;;;;;14.50;11.43;;;2.80;99.90;;;;;;5052195;28;20170;-57
2024/02/26 06:00:42;;;;;;;13.00;11.50;;;2.70;99.90;;;;;;5051842;28;20199;-57
2024/02/26 06:03:07;;;;;;;13.63;10.57;;;2.70;99.90;;;;;;5051810;28;20206;-56
2024/02/26 06:05:33;;;;;;;13.27;10.87;;;2.80;99.90;;;;;;5051802;28;20171;-57
2024/02/26 06:07:59;;;;;;;16.83;12.80;;;2.80;99.90;;;;;;5073024;22;20828;-63
2024/02/26 06:10:24;;;;;;;12.93;10.27;;;2.80;99.90;;;;;;5074732;28;20258;-63
2024/02/26 06:12:50;;;;;;;13.60;10.80;;;2.80;99.90;;;;;;5070475;28;20421;-64
2024/02/26 06:15:16;;;;;;;15.30;11.93;;;2.80;99.90;;;;;;5070594;28;20206;-64
2024/02/26 06:17:41;;;;;;;16.97;11.80;;;2.90;99.90;;;;;;5050633;28;20183;-63
2024/02/26 06:20:11;;;;;;;21.33;13.07;;;2.90;99.90;;;;;;5063889;28;20210;-64
2024/02/26 06:22:37;;;;;;;14.90;12.00;;;2.90;99.90;;;;;;5070312;28;20560;-64
2024/02/26 06:25:03;;;;;;;19.47;11.93;;;3.00;99.90;;;;;;5070227;28;20420;-62
2024/02/26 06:27:28;;;;;;;13.40;10.80;;;3.00;99.90;;;;;;5070299;28;20173;-63
2024/02/26 06:29:54;;;;;;;14.87;11.90;;;3.00;99.90;;;;;;5070048;28;20427;-64
2024/02/26 06:32:20;;;;;;;15.90;11.70;;;3.00;99.90;;;;;;5070432;28;20174;-64
2024/02/26 06:34:45;;;;;;;15.13;12.17;;;3.10;99.90;;;;;;5070121;28;20263;-64
2024/02/26 06:37:11;;;;;;;16.47;12.40;;;3.20;99.90;;;;;;5070276;28;20182;-64
2024/02/26 06:39:37;;;;;;;17.37;12.53;;;3.20;99.90;;;;;;5066962;28;20209;-64
2024/02/26 06:42:03;;;;;;;20.00;13.43;;;3.40;99.90;;;;;;5070414;28;20181;-64
2024/02/26 06:44:31;;;;;;;17.13;12.10;;;3.50;99.90;;;;;;5070110;28;20928;-64
2024/02/26 06:46:59;;;;;;;23.57;13.63;;;3.60;99.90;;;;;;5070900;28;20178;-64
2024/02/26 06:49:24;;;;;;;16.87;13.90;;;3.70;99.90;;;;;;5070372;28;20436;-64
2024/02/26 06:51:50;;;;;;;14.73;13.10;;;3.80;99.90;;;;;;5070295;28;20477;-64
2024/02/26 06:54:15;;;;;;;17.00;12.10;;;3.90;99.90;;;;;;5070343;28;20224;-63
2024/02/26 06:56:41;;;;;;;16.83;13.90;;;4.00;99.90;;;;;;5070320;28;20178;-64
2024/02/26 06:59:07;;;;;;;19.83;12.60;;;4.20;99.90;;;;;;5073789;28;20197;-64
2024/02/26 07:01:32;;;;;;;22.70;14.20;;;4.30;99.90;;;;;;5074237;28;20230;-64
2024/02/26 07:03:58;;;;;;;20.13;12.13;;;4.40;99.90;;;;;;5074086;28;20640;-64
2024/02/26 07:06:23;;;;;;;17.67;12.63;;;4.40;99.90;;;;;;5066927;28;20224;-64
2024/02/26 07:08:49;;;;;;;18.97;13.27;;;4.60;99.90;;;;;;5072687;28;20209;-64
2024/02/26 07:11:14;;;;;;;17.03;11.23;;;4.70;99.90;;;;;;5074162;28;20182;-64
2024/02/26 07:13:40;;;;;;;16.70;12.17;;;5.00;99.90;;;;;;5057104;28;20194;-63
2024/02/26 07:16:08;;;;;;;16.90;13.40;;;5.20;99.90;;;;;;5074153;28;20186;-64
2024/02/26 07:18:34;;;;;;;14.53;10.97;;;5.50;99.90;;;;;;5073570;28;20207;-64
2024/02/26 07:21:02;;;;;;;16.00;9.90;;;5.90;99.90;;;;;;5073936;28;20452;-64
2024/02/26 07:23:28;;;;;;;14.30;9.93;;;6.10;99.90;;;;;;5048207;28;20200;-64
2024/02/26 07:25:53;;;;;;;16.33;10.43;;;6.60;99.90;;;;;;5064694;28;20515;-65
2024/02/26 07:28:19;;;;;;;15.87;11.60;;;6.60;99.90;;;;;;5073610;28;20280;-65
2024/02/26 07:30:45;;;;;;;12.43;9.83;;;6.70;99.90;;;;;;5072069;28;20188;-65
2024/02/26 07:33:11;;;;;;;14.67;9.73;;;6.80;99.90;;;;;;5061669;28;20468;-65
2024/02/26 07:35:38;;;;;;;12.27;10.10;;;7.10;99.90;;;;;;5045976;28;20426;-65
2024/02/26 07:38:04;;;;;;;12.13;10.83;;;7.40;99.90;;;;;;5062355;28;20210;-63
2024/02/26 07:40:30;;;;;;;11.63;10.40;;;7.50;99.90;;;;;;5073335;28;20577;-64
2024/02/26 07:42:56;;;;;;;11.83;10.33;;;7.30;99.90;;;;;;5054139;28;20424;-64
2024/02/26 07:45:22;;;;;;;15.00;10.57;;;7.30;99.90;;;;;;5048964;28;20257;-65
2024/02/26 07:47:48;;;;;;;12.13;10.87;;;7.40;99.90;;;;;;5048017;28;20207;-65
2024/02/26 07:50:14;;;;;;;15.93;12.07;;;7.40;99.90;;;;;;5064248;28;20187;-66
2024/02/26 07:52:40;;;;;;;14.27;11.03;;;7.50;99.90;;;;;;5062034;28;20453;-63
2024/02/26 07:55:06;;;;;;;14.50;10.50;;;7.80;99.90;;;;;;5073174;28;20466;-64
2024/02/26 07:57:35;;;;;;;12.80;10.00;;;8.10;99.90;;;;;;5072916;28;20197;-70
2024/02/26 08:00:02;;;;;;;13.23;10.60;;;8.40;99.90;;;;;;5053163;28;20522;-64
2024/02/26 08:02:28;;;;;;;18.47;11.80;;;8.80;99.90;;;;;;5068561;28;20931;-64
2024/02/26 08:04:53;;;;;;;12.87;10.53;;;8.60;99.90;;;;;;5072765;28;20428;-64
2024/02/26 08:07:21;;;;;;;13.27;10.10;;;9.10;99.90;;;;;;5060434;28;20425;-64
2024/02/26 08:09:46;;;;;;;12.37;10.40;;;9.10;99.90;;;;;;5069905;28;20795;-64
2024/02/26 08:12:12;;;;;;;10.90;9.80;;;9.00;99.90;;;;;;5073252;28;20439;-64
2024/02/26 08:14:38;;;;;;;12.03;10.57;;;8.50;99.90;;;;;;5058243;28;20449;-64
2024/02/26 08:17:03;;;;;;;14.07;10.70;;;8.20;99.90;;;;;;5071159;28;20209;-63
2024/02/26 08:19:29;;;;;;;13.30;11.17;;;8.20;99.90;;;;;;5068287;28;20242;-63
2024/02/26 08:21:55;;;;;;;14.03;12.07;;;8.30;99.90;;;;;;5072509;28;20247;-63
2024/02/26 08:24:20;;;;;;;14.17;12.03;;;8.20;99.90;;;;;;5070586;28;20186;-64
2024/02/26 08:26:46;;;;;;;15.10;12.13;;;8.40;99.90;;;;;;5062577;28;20190;-63
2024/02/26 08:29:11;;;;;;;16.40;12.20;;;8.20;99.90;;;;;;5065414;28;20547;-64
2024/02/26 08:31:37;;;;;;;15.70;10.77;;;8.40;99.90;;;;;;5072275;28;20184;-64
2024/02/26 08:34:03;;;;;;;13.47;11.90;;;8.60;99.90;;;;;;5072284;28;20192;-63
2024/02/26 08:36:31;;;;;;;12.60;9.73;;;9.10;99.90;;;;;;5072390;28;20244;-64
2024/02/26 08:38:57;;;;;;;19.37;12.33;;;9.60;99.90;;;;;;5072003;28;20810;-64
2024/02/26 08:41:22;;;;;;;16.43;12.70;;;9.60;99.90;;;;;;5068341;28;20417;-65
2024/02/26 08:43:48;;;;;;;18.13;13.37;;;10.20;99.90;;;;;;5061906;28;20201;-68
2024/02/26 08:46:13;;;;;;;13.20;10.33;;;10.00;99.90;;;;;;5072249;28;20194;-64
2024/02/26 08:48:40;;;;;;;12.40;11.10;;;10.60;99.90;;;;;;5071797;28;20205;-66
2024/02/26 08:51:07;;;;;;;17.27;11.50;;;10.80;99.90;;;;;;5072284;28;20193;-64
2024/02/26 08:53:33;;;;;;;13.57;11.17;;;10.90;99.90;;;;;;5071845;28;20723;-64
2024/02/26 08:55:58;;;;;;;12.40;11.10;;;10.80;99.90;;;;;;5072077;28;20428;-64
2024/02/26 08:58:24;;;;;;;15.10;11.00;;;11.20;99.90;;;;;;5072174;28;20213;-66
2024/02/26 09:00:50;;;;;;;12.37;10.37;;;11.20;99.90;;;;;;5071937;28;20687;-63
2024/02/26 09:03:16;;;;;;;13.90;11.70;;;11.30;99.90;;;;;;5071773;28;20183;-64
2024/02/26 09:05:42;;;;;;;12.10;10.37;;;11.00;99.90;;;;;;5069572;28;20429;-63
2024/02/26 09:08:07;;;;;;;15.93;12.70;;;11.40;99.90;;;;;;5071983;28;20301;-62
2024/02/26 09:10:33;;;;;;;13.13;11.83;;;11.90;99.90;;;;;;5071987;28;20185;-64
2024/02/26 09:12:58;;;;;;;16.23;11.13;;;12.30;99.90;;;;;;5071925;28;20204;-64
2024/02/26 09:15:24;;;;;;;14.80;11.07;;;13.10;99.90;;;;;;5070968;28;20189;-63
2024/02/26 09:17:50;;;;;;;14.50;11.50;;;13.60;99.90;;;;;;5071403;28;20611;-63
2024/02/26 09:20:20;;;;;;;12.03;10.80;;;13.90;99.90;;;;;;5071331;28;20808;-63
2024/02/26 09:22:47;;;;;;;13.40;9.80;;;14.00;99.90;;;;;;5071089;28;20243;-63
2024/02/26 09:25:13;;;;;;;13.73;10.93;;;13.40;99.90;;;;;;5071497;28;20836;-63
2024/02/26 09:27:38;;;;;;;14.20;11.07;;;13.10;99.90;;;;;;5071282;28;20482;-63
2024/02/26 09:30:04;;;;;;;13.67;11.53;;;13.10;99.90;;;;;;5064540;28;20433;-64
2024/02/26 09:32:30;;;;;;;11.80;10.60;;;12.90;99.90;;;;;;5061566;28;20582;-63
2024/02/26 09:34:56;;;;;;;14.73;10.07;;;12.10;99.90;;;;;;5070957;28;20423;-64
2024/02/26 09:37:21;;;;;;;15.97;11.70;;;12.10;99.90;;;;;;5071007;28;20206;-64
2024/02/26 09:39:47;;;;;;;12.83;11.60;;;12.10;99.90;;;;;;5069740;28;20275;-64
2024/02/26 09:42:13;;;;;;;12.53;10.23;;;12.00;99.90;;;;;;5066393;28;20261;-64
2024/02/26 09:44:41;;;;;;;12.33;10.07;;;11.00;99.90;;;;;;5071589;28;20198;-64
2024/02/26 09:47:10;;;;;;;14.10;10.43;;;11.20;99.90;;;;;;5071998;28;20179;-64
2024/02/26 09:49:36;;;;;;;12.80;11.40;;;11.00;99.90;;;;;;5071704;28;20593;-64
2024/02/26 09:52:04;;;;;;;14.37;11.43;;;10.70;99.90;;;;;;5070759;28;20459;-64
2024/02/26 09:54:31;;;;;;;12.20;10.77;;;11.20;99.90;;;;;;5071060;28;20509;-65
2024/02/26 09:57:00;;;;;;;13.37;10.23;;;11.60;99.90;;;;;;5070688;28;20428;-63
2024/02/26 09:59:27;;;;;;;13.70;11.43;;;11.40;99.90;;;;;;5071673;28;20466;-63
2024/02/26 10:01:53;;;;;;;15.40;11.47;;;11.40;99.90;;;;;;5071129;28;20922;-64
2024/02/26 10:04:20;;;;;;;13.67;11.97;;;11.30;99.90;;;;;;5070771;28;20421;-65
2024/02/26 10:06:46;;;;;;;14.57;12.43;;;11.20;99.90;;;;;;5070588;28;20425;-66
2024/02/26 10:09:12;;;;;;;45.93;26.50;;;11.00;99.90;;;;;;5064461;28;20452;-64
2024/02/26 10:11:40;;;;;;;13.60;11.53;;;11.00;99.90;;;;;;5071527;28;20432;-64
2024/02/26 10:14:05;;;;;;;18.60;11.27;;;10.90;99.90;;;;;;5069929;28;20185;-63
2024/02/26 10:16:33;;;;;;;13.33;10.17;;;10.70;99.90;;;;;;5071155;28;20428;-63
2024/02/26 10:18:58;;;;;;;11.83;10.50;;;10.70;99.90;;;;;;5070045;28;20221;-64
2024/02/26 10:21:24;;;;;;;16.33;10.07;;;10.70;99.90;;;;;;5065346;28;20429;-63
2024/02/26 10:23:52;;;;;;;10.93;9.50;;;10.60;99.90;;;;;;5063896;28;20185;-64
2024/02/26 10:26:19;;;;;;;12.63;10.40;;;10.60;99.90;;;;;;5072330;28;20655;-63
2024/02/26 10:28:46;;;;;;;11.20;10.10;;;10.60;99.90;;;;;;5070446;28;20440;-64
2024/02/26 10:31:14;;;;;;;10.50;9.40;;;10.60;99.90;;;;;;5070697;28;20855;-64
2024/02/26 10:33:40;;;;;;;16.70;11.93;;;10.50;99.90;;;;;;5069363;28;20416;-63
2024/02/26 10:36:07;;;;;;;12.73;9.83;;;10.70;99.90;;;;;;5058393;28;20934;-63
2024/02/26 10:38:37;;;;;;;11.73;9.93;;;10.80;99.90;;;;;;5056010;28;20468;-64
2024/02/26 10:41:06;;;;;;;13.77;10.73;;;10.80;99.90;;;;;;5067007;28;20463;-64
2024/02/26 10:43:32;;;;;;;12.73;10.60;;;10.80;99.90;;;;;;5060382;28;20416;-64
2024/02/26 10:45:58;;;;;;;11.07;9.83;;;10.90;99.90;;;;;;5054544;28;20443;-64
2024/02/26 10:48:24;;;;;;;12.43;9.27;;;11.00;99.90;;;;;;5070119;28;20271;-64
2024/02/26 10:50:50;;;;;;;13.50;8.60;;;11.00;99.90;;;;;;5070173;28;20420;-65
2024/02/26 10:53:29;;;;;;;11.03;9.83;;;11.00;99.90;;;;;;5057345;28;20423;-64
2024/02/26 10:56:03;;;;;;;7.83;6.90;;;11.00;99.90;;;;;;5070086;28;20947;-65
2024/02/26 10:58:29;;;;;;;10.53;8.30;;;11.10;99.90;;;;;;5064710;28;20495;-64
2024/02/26 11:00:56;;;;;;;10.93;9.10;;;11.20;99.90;;;;;;5068363;28;20531;-65
2024/02/26 11:03:22;;;;;;;9.13;8.17;;;11.00;99.90;;;;;;5070343;28;20424;-65
2024/02/26 11:05:49;;;;;;;12.20;9.53;;;11.00;99.90;;;;;;5068719;28;21190;-65
2024/02/26 11:08:18;;;;;;;10.40;8.37;;;11.20;99.90;;;;;;5070328;28;20898;-64
2024/02/26 11:10:46;;;;;;;14.30;9.93;;;11.10;99.90;;;;;;5064802;28;20435;-65
2024/02/26 11:13:15;;;;;;;10.77;9.30;;;11.30;99.90;;;;;;5069789;28;20427;-64
2024/02/26 11:15:41;;;;;;;10.40;9.33;;;11.10;99.90;;;;;;5068571;28;20835;-63
2024/02/26 11:18:08;;;;;;;9.53;8.43;;;11.20;99.90;;;;;;5069767;28;20459;-64
2024/02/26 11:20:38;;;;;;;9.50;8.37;;;11.40;99.90;;;;;;5062971;28;20870;-64
2024/02/26 11:23:04;;;;;;;9.97;7.80;;;11.40;99.90;;;;;;5069912;28;20424;-64
2024/02/26 11:25:29;;;;;;;11.60;9.87;;;11.40;99.90;;;;;;5064385;28;20755;-64
2024/02/26 11:28:01;;;;;;;10.13;9.03;;;11.50;99.90;;;;;;5067485;28;20472;-64
2024/02/26 11:30:31;;;;;;;13.00;8.57;;;11.50;99.90;;;;;;5070391;28;20178;-64
2024/02/26 11:32:57;;;;;;;10.10;9.10;;;11.60;99.90;;;;;;5069702;28;20428;-64
2024/02/26 11:35:23;;;;;;;16.57;10.43;;;11.50;99.90;;;;;;5070089;28;20452;-63
2024/02/26 11:37:56;;;;;;;12.63;10.90;;;11.50;99.90;;;;;;5069853;28;20459;-63
2024/02/26 11:40:25;;;;;;;13.57;9.53;;;11.50;99.90;;;;;;5069461;28;20484;-66
2024/02/26 11:42:53;;;;;;;11.80;9.70;;;11.50;99.90;;;;;;5069560;28;20428;-64
2024/02/26 11:45:38;;;;;;;11.33;10.17;;;11.30;99.90;;;;;;5070279;28;20851;-64
2024/02/26 11:48:15;;;;;;;12.80;10.37;;;11.40;99.90;;;;;;5059078;28;20551;-61
2024/02/26 11:50:47;;;;;;;11.17;10.03;;;11.50;99.90;;;;;;5073279;28;20427;-64
2024/02/26 11:53:31;;;;;;;11.83;9.93;;;11.50;99.90;;;;;;5073000;28;20799;-64
2024/02/26 11:56:26;;;;;;;12.00;10.50;;;11.40;99.90;;;;;;5071762;28;20432;-63
2024/02/26 11:59:12;;;;;;;12.87;10.10;;;11.40;99.90;;;;;;5070142;28;20796;-64
2024/02/26 12:01:48;;;;;;;11.70;10.60;;;11.50;99.90;;;;;;5066617;28;20421;-64
2024/02/26 12:04:19;;;;;;;17.13;11.13;;;11.40;99.90;;;;;;5073002;28;20808;-64
2024/02/26 12:06:54;;;;;;;13.80;10.80;;;11.30;99.90;;;;;;5071301;28;20424;-64
2024/02/26 12:09:40;;;;;;;10.73;9.27;;;11.30;99.90;;;;;;5057804;28;21078;-64
2024/02/26 12:12:13;;;;;;;14.13;11.13;;;11.30;99.90;;;;;;5072772;28;20754;-65
2024/02/26 12:14:40;;;;;;;13.70;10.73;;;11.30;99.90;;;;;;5068861;28;20890;-66
2024/02/26 12:17:18;;;;;;;15.60;10.67;;;11.40;99.90;;;;;;5071314;28;20447;-64
2024/02/26 12:19:44;;;;;;;12.50;11.00;;;11.40;99.90;;;;;;5099867;22;20479;-60
2024/02/26 12:22:13;;;;;;;13.10;11.47;;;11.60;99.90;;;;;;5071855;28;20482;-58
2024/02/26 12:24:38;;;;;;;13.67;11.47;;;11.60;99.90;;;;;;5071293;28;20424;-60
2024/02/26 12:27:04;;;;;;;11.30;9.97;;;11.70;99.90;;;;;;5072935;28;20914;-60
2024/02/26 12:29:30;;;;;;;13.10;10.30;;;11.70;99.90;;;;;;5063807;28;20203;-60
2024/02/26 12:31:55;;;;;;;12.90;10.77;;;11.70;99.90;;;;;;5064967;28;20192;-60
2024/02/26 12:34:22;;;;;;;13.33;10.67;;;11.70;99.90;;;;;;5050611;28;20554;-59
2024/02/26 12:36:47;;;;;;;10.10;9.10;;;11.90;99.90;;;;;;5064376;28;20194;-59